AGROMETEOROLOŠKI PORTAL

vinorodna pokrajina

Temelj dobrega kmetovanja

Pregled podatkov za lokacijo NOVA VAS - BLOKE - ARSO, meteorološka postaja 155

Pregled senzorjev na lokaciji

ID Ime Zadnja
vrednost
Datum in čas
meritve
(lokalni čas)
Tip
senzorja
5978 Padavine (mm) 0 mm 4.2.2023 23:00 ARSO
5980 Relativna zračna vlaga (2 m) (% RH) 58 % RH 4.2.2023 23:00 ARSO
5979 Temperatura (2 m) (°C) -2,4 °C 4.2.2023 23:00 ARSO

Pregled podatkov zadnjih 24 ur

Zap.
št.
Datum in čas
(lokalni čas)
NOVA VAS - BLOKE - ARSO
Padavine Relativna
zračna
vlaga
(2
m)
Temperatura
(2
m)
1 4.2.2023 23:00 0 57,7 -2,4
2 4.2.2023 22:30 0 55,7 -2,2
3 4.2.2023 22:00 0 56,7 -2,1
4 4.2.2023 21:30 0 57,3 -2
5 4.2.2023 21:00 0 60,7 -2,4
6 4.2.2023 20:30 0 58,3 -1,6
7 4.2.2023 20:00 0 57,7 -1,3
8 4.2.2023 19:30 0 56 -0,7
9 4.2.2023 19:00 0 54,3 -0,1
10 4.2.2023 18:30 0 54,7 0,2
11 4.2.2023 18:00 0 53,7 0,7
12 4.2.2023 17:30 0 52 1,4
13 4.2.2023 17:00 0 51,3 2,1
14 4.2.2023 16:30 0 50 2,7
15 4.2.2023 16:00 0 44,7 3,5
16 4.2.2023 15:30 0 43,3 4,2
17 4.2.2023 15:00 0 39,3 5,3
18 4.2.2023 14:30 0 37,7 5,7
19 4.2.2023 14:00 0 34 6,1
20 4.2.2023 13:30 0 36,3 6,1
21 4.2.2023 13:00 0 37 6,1
22 4.2.2023 12:30 0 31,3 7,1
23 4.2.2023 12:00 0 28,3 7,3
24 4.2.2023 11:30 0 28,7 7,2
25 4.2.2023 11:00 0 34,7 6,8
26 4.2.2023 10:30 0 38 6,6
27 4.2.2023 10:00 0 40,7 6,7
28 4.2.2023 09:30 0 40,7 6,6
29 4.2.2023 09:00 0 45,7 5,6
30 4.2.2023 08:30 0 80 -0,9
31 4.2.2023 08:00 0 90,7 -7,1
32 4.2.2023 07:30 0 90,7 -9,1
33 4.2.2023 07:00 0 90,3 -9,1
34 4.2.2023 06:30 0 91 -8
35 4.2.2023 06:00 0 91,3 -7,3
36 4.2.2023 05:30 0 93,3 -5,9
37 4.2.2023 05:00 0 93,7 -5,9
38 4.2.2023 04:30 0 94 -5,7
39 4.2.2023 04:00 0 93,7 -5,7
40 4.2.2023 03:30 0 93,3 -5,3
41 4.2.2023 03:00 0 94 -4,3
42 4.2.2023 02:30 0 94,3 -3,7
43 4.2.2023 02:00 0 94,7 -3,1
44 4.2.2023 01:30 0 94,3 -2,5
45 4.2.2023 01:00 0 94,3 -1,8
46 4.2.2023 00:30 0 92 -1,3
47 4.2.2023 00:00 0 88,7 0,5